Time;durP1;ratioP1;P1;durP2;ratioP2;P2;SDS_P1;SDS_P2;PMS_P1;PMS_P2;Temp;Humidity;BMP_temperature;BMP_pressure;BME280_temperature;BME280_humidity;BME280_pressure;Samples;Min_cycle;Max_cycle;Signal;HPM_P1;HPM_P2
2024/01/16 00:01:46;;;;;;;;;;;1.30;83.40;;;;;;4969993;28;19930;-78
2024/01/16 00:04:19;;;;;;;;;;;1.20;83.50;;;;;;4970124;28;20390;-79
2024/01/16 00:06:52;;;;;;;;;;;1.30;83.60;;;;;;4967878;28;19969;-78
2024/01/16 00:09:27;;;;;;;;;;;1.20;83.50;;;;;;4969095;28;20008;-79
2024/01/16 00:12:00;;;;;;;;;;;1.30;83.50;;;;;;4971645;28;20294;-78
2024/01/16 00:14:35;;;;;;;;;;;1.20;83.40;;;;;;4971448;28;20030;-77
2024/01/16 00:17:08;;;;;;;;;;;1.20;83.50;;;;;;4963359;28;19937;-63
2024/01/16 00:19:42;;;;;;;;;;;1.30;83.50;;;;;;4967304;28;20433;-62
2024/01/16 00:22:15;;;;;;;;;;;1.20;83.20;;;;;;4969045;28;19926;-61
2024/01/16 00:24:50;;;;;;;;;;;1.30;83.20;;;;;;4969800;28;19934;-62
2024/01/16 00:27:23;;;;;;;;;;;1.30;83.30;;;;;;4969481;28;19961;-63
2024/01/16 00:29:56;;;;;;;;;;;1.30;83.30;;;;;;4970970;28;19934;-61
2024/01/16 00:32:29;;;;;;;;;;;1.30;83.30;;;;;;4966079;28;19930;-62
2024/01/16 00:35:02;;;;;;;;;;;1.20;83.30;;;;;;4969383;28;19933;-61
2024/01/16 00:37:36;;;;;;;;;;;1.20;83.30;;;;;;4969445;28;19957;-63
2024/01/16 00:40:11;;;;;;;;;;;1.20;83.40;;;;;;4961560;28;19933;-62
2024/01/16 00:42:44;;;;;;;;;;;1.20;83.50;;;;;;4970114;28;19927;-62
2024/01/16 00:45:18;;;;;;;;;;;1.30;83.40;;;;;;4967831;28;19926;-63
2024/01/16 00:47:51;;;;;;;;;;;1.30;83.40;;;;;;4968817;28;20016;-63
2024/01/16 00:50:25;;;;;;;;;;;1.20;83.20;;;;;;4968531;28;20025;-62
2024/01/16 00:52:58;;;;;;;;;;;1.20;83.20;;;;;;4969885;28;19937;-63
2024/01/16 00:55:40;;;;;;;;;;;1.20;83.30;;;;;;4969086;28;19937;-62
2024/01/16 00:58:13;;;;;;;;;;;1.20;83.20;;;;;;4969437;28;20380;-64
2024/01/16 01:00:46;;;;;;;;;;;1.20;83.20;;;;;;4969558;28;19983;-62
2024/01/16 01:03:19;;;;;;;;;;;1.20;83.20;;;;;;4969047;28;19952;-62
2024/01/16 01:05:52;;;;;;;;;;;1.20;83.30;;;;;;5026624;28;20022;-63
2024/01/16 01:08:25;;;;;;;;;;;1.20;83.30;;;;;;4969692;28;19930;-62
2024/01/16 01:11:00;;;;;;;;;;;1.20;83.40;;;;;;4970294;28;19937;-63
2024/01/16 01:13:33;;;;;;;;;;;1.20;83.30;;;;;;4968847;28;20363;-61
2024/01/16 01:16:06;;;;;;;;;;;1.20;83.30;;;;;;4966564;28;20357;-64
2024/01/16 01:18:39;;;;;;;;;;;1.20;83.30;;;;;;4968951;28;19926;-63
2024/01/16 01:21:12;;;;;;;;;;;1.20;83.20;;;;;;4968918;28;19926;-63
2024/01/16 01:23:45;;;;;;;;;;;1.20;83.20;;;;;;4969966;28;20442;-64
2024/01/16 01:26:14;;;;;;;;;;;1.20;83.10;;;;;;4963859;28;19930;-63
2024/01/16 01:28:47;;;;;;;;;;;1.20;83.30;;;;;;4970820;28;19930;-64
2024/01/16 01:31:20;;;;;;;;;;;1.20;83.10;;;;;;4971186;28;19934;-63
2024/01/16 01:33:53;;;;;;;;;;;1.20;83.20;;;;;;4969611;28;20008;-64
2024/01/16 01:36:27;;;;;;;;;;;1.20;83.30;;;;;;4968501;28;20004;-63
2024/01/16 01:39:00;;;;;;;;;;;1.20;83.20;;;;;;4968671;28;19948;-65
2024/01/16 01:41:35;;;;;;;;;;;1.20;83.30;;;;;;4967009;28;19957;-63
2024/01/16 01:44:07;;;;;;;;;;;1.10;83.30;;;;;;5050722;28;19934;-63
2024/01/16 01:46:40;;;;;;;;;;;1.20;83.40;;;;;;4968605;28;19938;-62
2024/01/16 01:49:15;;;;;;;;;;;1.20;83.30;;;;;;4969031;28;19980;-65
2024/01/16 01:51:49;;;;;;;;;;;1.10;83.20;;;;;;4969728;28;19949;-64
2024/01/16 01:54:23;;;;;;;;;;;1.20;83.30;;;;;;4966371;28;20065;-64
2024/01/16 01:56:58;;;;;;;;;;;1.20;83.30;;;;;;4969560;28;19934;-64
2024/01/16 01:59:32;;;;;;;;;;;1.20;83.40;;;;;;4969191;28;19932;-65
2024/01/16 02:02:05;;;;;;;;;;;1.20;83.20;;;;;;4967385;28;19930;-65
2024/01/16 02:04:39;;;;;;;;;;;1.10;83.30;;;;;;4965511;28;19934;-61
2024/01/16 02:07:13;;;;;;;;;;;1.10;83.30;;;;;;4968877;28;19932;-63
2024/01/16 02:09:45;;;;;;;;;;;1.10;83.30;;;;;;4969702;28;19927;-63
2024/01/16 02:12:20;;;;;;;;;;;1.10;83.20;;;;;;4968378;28;20392;-62
2024/01/16 02:14:53;;;;;;;;;;;1.10;83.40;;;;;;4968363;28;19962;-62
2024/01/16 02:17:26;;;;;;;;;;;1.10;83.50;;;;;;4968457;28;19930;-62
2024/01/16 02:19:59;;;;;;;;;;;1.00;83.30;;;;;;4967092;28;19940;-63
2024/01/16 02:22:33;;;;;;;;;;;1.10;83.40;;;;;;4967418;28;20449;-62
2024/01/16 02:25:08;;;;;;;;;;;1.10;83.40;;;;;;4968949;28;20008;-63
2024/01/16 02:27:42;;;;;;;;;;;1.00;83.40;;;;;;4968531;28;19934;-63
2024/01/16 02:30:15;;;;;;;;;;;1.00;83.50;;;;;;4968691;28;19926;-63
2024/01/16 02:32:48;;;;;;;;;;;1.10;83.40;;;;;;4967279;28;19930;-63
2024/01/16 02:35:21;;;;;;;;;;;1.00;83.40;;;;;;4967813;28;19926;-63
2024/01/16 02:37:54;;;;;;;;;;;1.00;83.60;;;;;;4966323;28;19927;-65
2024/01/16 02:40:29;;;;;;;;;;;1.10;83.40;;;;;;4967883;28;19933;-67
2024/01/16 02:43:01;;;;;;;;;;;1.00;83.50;;;;;;4967316;28;19937;-67
2024/01/16 02:45:34;;;;;;;;;;;1.00;83.50;;;;;;4967745;28;19937;-67
2024/01/16 02:48:07;;;;;;;;;;;1.00;83.70;;;;;;4968457;28;19926;-67
2024/01/16 02:50:40;;;;;;;;;;;1.10;83.70;;;;;;4968030;28;19949;-66
2024/01/16 02:53:20;;;;;;;;;;;1.00;83.50;;;;;;4966064;28;20004;-65
2024/01/16 02:55:58;;;;;;;;;;;1.00;83.50;;;;;;4968113;28;19996;-67
2024/01/16 02:58:31;;;;;;;;;;;1.00;83.40;;;;;;4968297;28;20010;-67
2024/01/16 03:01:04;;;;;;;;;;;1.00;83.50;;;;;;4967724;28;20361;-67
2024/01/16 03:03:37;;;;;;;;;;;1.00;83.60;;;;;;4964131;28;20451;-67
2024/01/16 03:06:10;;;;;;;;;;;1.00;83.50;;;;;;4965979;28;20373;-65
2024/01/16 03:08:43;;;;;;;;;;;1.00;83.50;;;;;;5049639;28;19973;-66
2024/01/16 03:11:18;;;;;;;;;;;1.00;83.60;;;;;;4966009;28;19927;-67
2024/01/16 03:13:53;;;;;;;;;;;1.00;83.60;;;;;;4967320;28;19936;-65
2024/01/16 03:16:25;;;;;;;;;;;1.00;83.60;;;;;;4966028;28;20341;-67
2024/01/16 03:18:58;;;;;;;;;;;1.00;83.60;;;;;;4966438;28;20381;-66
2024/01/16 03:21:31;;;;;;;;;;;1.00;83.50;;;;;;4964297;28;19926;-67
2024/01/16 03:23:58;;;;;;;;;;;1.00;83.40;;;;;;4967287;28;19933;-66
2024/01/16 03:26:33;;;;;;;;;;;1.00;83.40;;;;;;4967429;28;20277;-66
2024/01/16 03:29:06;;;;;;;;;;;1.00;83.40;;;;;;4967983;28;19937;-66
2024/01/16 03:31:33;;;;;;;;;;;1.00;83.40;;;;;;4967150;28;19930;-66
2024/01/16 03:34:10;;;;;;;;;;;0.90;83.50;;;;;;4968393;28;19926;-66
2024/01/16 03:36:43;;;;;;;;;;;0.90;83.50;;;;;;4966852;28;19995;-66
2024/01/16 03:39:17;;;;;;;;;;;0.90;83.50;;;;;;4965221;28;19930;-67
2024/01/16 03:41:51;;;;;;;;;;;0.90;83.60;;;;;;4968312;28;20372;-66
2024/01/16 03:44:25;;;;;;;;;;;0.90;83.70;;;;;;4964988;28;19930;-67
2024/01/16 03:46:58;;;;;;;;;;;0.90;83.90;;;;;;4967288;28;19930;-62
2024/01/16 03:49:31;;;;;;;;;;;0.90;83.90;;;;;;4966795;28;19946;-62
2024/01/16 03:52:05;;;;;;;;;;;0.90;83.80;;;;;;4967066;28;19940;-63
2024/01/16 03:54:45;;;;;;;;;;;0.90;83.70;;;;;;4965029;28;19934;-62
2024/01/16 03:57:20;;;;;;;;;;;0.90;83.70;;;;;;4966756;28;19930;-62
2024/01/16 03:59:53;;;;;;;;;;;0.90;83.50;;;;;;4966669;28;20537;-63
2024/01/16 04:02:20;;;;;;;;;;;0.80;83.60;;;;;;4967863;28;19933;-62
2024/01/16 04:04:53;;;;;;;;;;;0.80;83.60;;;;;;4967612;28;19935;-62
2024/01/16 04:07:27;;;;;;;;;;;0.80;83.70;;;;;;4965548;28;20022;-63
2024/01/16 04:10:01;;;;;;;;;;;0.80;83.50;;;;;;4967169;28;19930;-64
2024/01/16 04:12:36;;;;;;;;;;;0.80;83.60;;;;;;4965320;28;19934;-62
2024/01/16 04:15:10;;;;;;;;;;;0.80;83.40;;;;;;4963436;28;20712;-61
2024/01/16 04:17:49;;;;;;;;;;;0.80;83.50;;;;;;4967342;28;20398;-62
2024/01/16 04:20:22;;;;;;;;;;;0.80;83.50;;;;;;5024988;28;19930;-60
2024/01/16 04:22:55;;;;;;;;;;;0.70;83.50;;;;;;4967482;28;19933;-62
2024/01/16 04:25:29;;;;;;;;;;;0.70;83.50;;;;;;4967188;28;20017;-62
2024/01/16 04:28:04;;;;;;;;;;;0.70;83.60;;;;;;4961268;28;19930;-63
2024/01/16 04:30:31;;;;;;;;;;;0.70;83.60;;;;;;4962690;28;19926;-62
2024/01/16 04:33:04;;;;;;;;;;;0.70;83.60;;;;;;4967486;28;19976;-63
2024/01/16 04:35:37;;;;;;;;;;;0.70;83.60;;;;;;4969807;28;20388;-62
2024/01/16 04:38:10;;;;;;;;;;;0.70;83.60;;;;;;4970402;28;19976;-62
2024/01/16 04:40:43;;;;;;;;;;;0.70;83.70;;;;;;4975450;28;19926;-62
2024/01/16 04:43:18;;;;;;;;;;;0.70;83.80;;;;;;4969652;28;19926;-62
2024/01/16 04:45:51;;;;;;;;;;;0.70;83.70;;;;;;4968830;28;19941;-62
2024/01/16 04:48:24;;;;;;;;;;;0.70;83.80;;;;;;5052248;28;19930;-62
2024/01/16 04:50:57;;;;;;;;;;;0.70;83.70;;;;;;4968624;28;19930;-62
2024/01/16 04:53:30;;;;;;;;;;;0.70;83.80;;;;;;5035922;28;20016;-62
2024/01/16 04:56:03;;;;;;;;;;;0.70;83.60;;;;;;4967229;28;19930;-61
2024/01/16 04:58:38;;;;;;;;;;;0.70;83.90;;;;;;4970288;28;20011;-66
2024/01/16 05:01:12;;;;;;;;;;;0.70;83.80;;;;;;4966231;28;19930;-65
2024/01/16 05:03:45;;;;;;;;;;;0.70;83.80;;;;;;4967237;28;20016;-65
2024/01/16 05:06:18;;;;;;;;;;;0.70;83.80;;;;;;4968377;28;19937;-67
2024/01/16 05:08:51;;;;;;;;;;;0.70;83.70;;;;;;4969814;28;19936;-67
2024/01/16 05:11:24;;;;;;;;;;;0.70;83.80;;;;;;4969747;28;20270;-67
2024/01/16 05:13:57;;;;;;;;;;;0.70;83.70;;;;;;4966967;28;19936;-67
2024/01/16 05:16:29;;;;;;;;;;;0.60;83.90;;;;;;4969882;28;19926;-67
2024/01/16 05:19:02;;;;;;;;;;;0.70;83.90;;;;;;4968142;28;19926;-66
2024/01/16 05:21:35;;;;;;;;;;;0.60;83.80;;;;;;4968376;28;20029;-67
2024/01/16 05:24:08;;;;;;;;;;;0.70;84.00;;;;;;5026552;28;19934;-65
2024/01/16 05:26:41;;;;;;;;;;;0.60;83.90;;;;;;4967429;28;19936;-66
2024/01/16 05:29:16;;;;;;;;;;;0.60;83.90;;;;;;4967928;28;19930;-66
2024/01/16 05:31:50;;;;;;;;;;;0.60;83.80;;;;;;5034809;28;19927;-67
2024/01/16 05:34:22;;;;;;;;;;;0.60;83.90;;;;;;5040755;28;19933;-66
2024/01/16 05:36:55;;;;;;;;;;;0.60;83.90;;;;;;4968141;28;19953;-67
2024/01/16 05:39:28;;;;;;;;;;;0.60;83.90;;;;;;4968199;28;19931;-67
2024/01/16 05:42:02;;;;;;;;;;;0.60;83.90;;;;;;4969369;28;19927;-65
2024/01/16 05:44:37;;;;;;;;;;;0.60;83.90;;;;;;4967133;28;20250;-65
2024/01/16 05:47:11;;;;;;;;;;;0.60;83.70;;;;;;4966329;28;19926;-66
2024/01/16 05:49:44;;;;;;;;;;;0.60;83.80;;;;;;4967981;28;19983;-65
2024/01/16 05:52:17;;;;;;;;;;;0.60;83.80;;;;;;4966083;28;20011;-66
2024/01/16 05:54:50;;;;;;;;;;;0.60;83.70;;;;;;4969760;28;19933;-67
2024/01/16 05:57:23;;;;;;;;;;;0.60;83.70;;;;;;4968774;28;19930;-67
2024/01/16 05:59:58;;;;;;;;;;;0.50;83.60;;;;;;4968122;28;19996;-67
2024/01/16 06:02:32;;;;;;;;;;;0.50;83.70;;;;;;4969384;28;19926;-67
2024/01/16 06:05:05;;;;;;;;;;;0.50;83.70;;;;;;4966066;28;19969;-66
2024/01/16 06:07:32;;;;;;;;;;;0.50;83.60;;;;;;4969650;28;19927;-62
2024/01/16 06:10:06;;;;;;;;;;;0.50;83.70;;;;;;4968227;28;19930;-64
2024/01/16 06:12:39;;;;;;;;;;;0.50;83.70;;;;;;4967365;28;19934;-62
2024/01/16 06:15:14;;;;;;;;;;;0.50;83.60;;;;;;4968024;28;19930;-63
2024/01/16 06:17:47;;;;;;;;;;;0.50;83.70;;;;;;4967028;28;19926;-63
2024/01/16 06:20:23;;;;;;;;;;;0.50;83.60;;;;;;4965339;28;19941;-63
2024/01/16 06:22:56;;;;;;;;;;;0.50;83.60;;;;;;4968894;28;19930;-62
2024/01/16 06:25:30;;;;;;;;;;;0.50;83.60;;;;;;4967688;28;20373;-62
2024/01/16 06:28:03;;;;;;;;;;;0.50;83.60;;;;;;4967541;28;19933;-61
2024/01/16 06:30:38;;;;;;;;;;;0.40;83.70;;;;;;4967852;28;20427;-64
2024/01/16 06:33:12;;;;;;;;;;;0.50;83.80;;;;;;4968918;28;19971;-62
2024/01/16 06:35:39;;;;;;;;;;;0.50;83.90;;;;;;4963510;28;19926;-63
2024/01/16 06:38:12;;;;;;;;;;;0.50;83.80;;;;;;4966128;28;20837;-63
2024/01/16 06:40:45;;;;;;;;;;;0.50;83.80;;;;;;4967495;28;20873;-63
2024/01/16 06:43:18;;;;;;;;;;;0.50;83.80;;;;;;4967847;28;19960;-63
2024/01/16 06:45:53;;;;;;;;;;;0.50;83.70;;;;;;4965450;28;19933;-62
2024/01/16 06:48:27;;;;;;;;;;;0.50;83.80;;;;;;5032571;28;20281;-62
2024/01/16 06:51:01;;;;;;;;;;;0.50;83.80;;;;;;4965231;28;19926;-64
2024/01/16 06:53:33;;;;;;;;;;;0.50;83.70;;;;;;4967471;28;20324;-63
2024/01/16 06:56:07;;;;;;;;;;;0.40;83.70;;;;;;4966967;28;20021;-62
2024/01/16 06:58:39;;;;;;;;;;;0.40;83.80;;;;;;4968036;28;19927;-62
2024/01/16 07:01:14;;;;;;;;;;;0.40;83.70;;;;;;4967506;28;19926;-63
2024/01/16 07:03:47;;;;;;;;;;;0.50;83.80;;;;;;4969401;28;20009;-64
2024/01/16 07:06:20;;;;;;;;;;;0.40;83.80;;;;;;4967227;28;19934;-64
2024/01/16 07:08:47;;;;;;;;;;;0.40;83.70;;;;;;4967832;28;20388;-63
2024/01/16 07:11:20;;;;;;;;;;;0.40;83.70;;;;;;4968839;28;19941;-63
2024/01/16 07:13:53;;;;;;;;;;;0.40;83.70;;;;;;5034582;28;20293;-63
2024/01/16 07:16:28;;;;;;;;;;;0.40;83.60;;;;;;4968433;28;20017;-63
2024/01/16 07:19:02;;;;;;;;;;;0.30;83.70;;;;;;4967827;28;19985;-63
2024/01/16 07:21:35;;;;;;;;;;;0.30;83.80;;;;;;4967164;28;19930;-61
2024/01/16 07:24:07;;;;;;;;;;;0.20;83.80;;;;;;4965385;28;19930;-63
2024/01/16 07:26:41;;;;;;;;;;;0.20;83.80;;;;;;4967323;28;19976;-62
2024/01/16 07:29:15;;;;;;;;;;;0.30;83.70;;;;;;4966551;28;19937;-63
2024/01/16 07:31:49;;;;;;;;;;;0.30;83.60;;;;;;4967299;28;20025;-61
2024/01/16 07:34:19;;;;;;;;;;;0.20;83.70;;;;;;4965950;28;19956;-62
2024/01/16 07:36:54;;;;;;;;;;;0.20;83.60;;;;;;5040945;28;20312;-63
2024/01/16 07:39:26;;;;;;;;;;;0.20;83.80;;;;;;4961722;28;19945;-62
2024/01/16 07:42:00;;;;;;;;;;;0.10;83.70;;;;;;5039818;28;20327;-63
2024/01/16 07:44:32;;;;;;;;;;;0.20;83.80;;;;;;5033096;28;20303;-61
2024/01/16 07:47:07;;;;;;;;;;;0.10;83.90;;;;;;4964697;28;19936;-62
2024/01/16 07:49:42;;;;;;;;;;;0.10;83.90;;;;;;4966909;28;20392;-61
2024/01/16 07:52:15;;;;;;;;;;;0.20;83.80;;;;;;4966531;28;19930;-64
2024/01/16 07:54:49;;;;;;;;;;;0.20;83.90;;;;;;4963026;28;19926;-63
2024/01/16 07:57:21;;;;;;;;;;;0.20;83.70;;;;;;4963385;28;20345;-64
2024/01/16 07:59:54;;;;;;;;;;;0.20;83.70;;;;;;4966211;28;20007;-66
2024/01/16 08:02:32;;;;;;;;;;;0.20;83.80;;;;;;5046831;28;20391;-61
2024/01/16 08:05:06;;;;;;;;;;;0.10;83.80;;;;;;4958264;28;19930;-62
2024/01/16 08:07:38;;;;;;;;;;;0.10;83.90;;;;;;4964636;28;19926;-63
2024/01/16 08:10:11;;;;;;;;;;;0.10;83.90;;;;;;4970313;28;19933;-63
2024/01/16 08:12:45;;;;;;;;;;;0.10;84.00;;;;;;4970311;28;19926;-62
2024/01/16 08:15:17;;;;;;;;;;;0.10;84.00;;;;;;4967985;28;19933;-62
2024/01/16 08:17:52;;;;;;;;;;;0.10;84.00;;;;;;4972341;28;19926;-62
2024/01/16 08:20:26;;;;;;;;;;;0.20;84.00;;;;;;4970304;28;19930;-63
2024/01/16 08:22:59;;;;;;;;;;;0.20;84.00;;;;;;4970380;28;19938;-63
2024/01/16 08:25:31;;;;;;;;;;;0.20;84.00;;;;;;4970529;28;19930;-63
2024/01/16 08:28:05;;;;;;;;;;;0.20;83.90;;;;;;4967550;28;20442;-62
2024/01/16 08:30:38;;;;;;;;;;;0.20;84.00;;;;;;4969013;28;20009;-63
2024/01/16 08:33:12;;;;;;;;;;;0.20;84.00;;;;;;4968801;28;19930;-63
2024/01/16 08:35:45;;;;;;;;;;;0.20;84.00;;;;;;4970028;28;19934;-61
2024/01/16 08:38:19;;;;;;;;;;;0.20;83.90;;;;;;4968305;28;19932;-62
2024/01/16 08:40:52;;;;;;;;;;;0.20;83.90;;;;;;4970404;28;20347;-62
2024/01/16 08:43:26;;;;;;;;;;;0.20;83.90;;;;;;4967164;28;19930;-63
2024/01/16 08:45:58;;;;;;;;;;;0.20;83.90;;;;;;4971407;28;20299;-63
2024/01/16 08:48:33;;;;;;;;;;;0.30;84.00;;;;;;4968873;28;20026;-62
2024/01/16 08:51:09;;;;;;;;;;;0.30;83.90;;;;;;4965186;28;20424;-62
2024/01/16 08:53:41;;;;;;;;;;;0.30;83.80;;;;;;4966735;28;20033;-63
2024/01/16 08:56:16;;;;;;;;;;;0.20;83.80;;;;;;4966843;28;19940;-64
2024/01/16 08:58:50;;;;;;;;;;;0.30;83.80;;;;;;4965306;28;19938;-63
2024/01/16 09:01:23;;;;;;;;;;;0.30;83.80;;;;;;4969677;28;19934;-62
2024/01/16 09:03:58;;;;;;;;;;;0.30;83.80;;;;;;4968845;28;19965;-64
2024/01/16 09:06:32;;;;;;;;;;;0.30;83.80;;;;;;5024907;28;19962;-62
2024/01/16 09:09:05;;;;;;;;;;;0.30;83.70;;;;;;5036933;28;20445;-63
2024/01/16 09:11:37;;;;;;;;;;;0.40;83.50;;;;;;4969364;28;19962;-63
2024/01/16 09:14:10;;;;;;;;;;;0.40;83.40;;;;;;4969460;28;20011;-63
2024/01/16 09:16:37;;;;;;;;;;;0.40;83.40;;;;;;4967161;28;19931;-62
2024/01/16 09:19:18;;;;;;;;;;;0.40;83.30;;;;;;4969238;28;19926;-62
2024/01/16 09:21:51;;;;;;;;;;;0.40;83.10;;;;;;4970061;28;19933;-62
2024/01/16 09:24:24;;;;;;;;;;;0.40;83.10;;;;;;4969662;28;19926;-62
2024/01/16 09:26:58;;;;;;;;;;;0.40;83.10;;;;;;4969462;28;20009;-62
2024/01/16 09:29:31;;;;;;;;;;;0.50;82.90;;;;;;4971806;28;20029;-63
2024/01/16 09:32:05;;;;;;;;;;;0.40;82.90;;;;;;4969234;28;19926;-63
2024/01/16 09:34:40;;;;;;;;;;;0.40;82.70;;;;;;4969014;28;19938;-62
2024/01/16 09:37:14;;;;;;;;;;;0.50;82.60;;;;;;4958560;28;20342;-62
2024/01/16 09:39:48;;;;;;;;;;;0.40;82.70;;;;;;5033699;28;19966;-63
2024/01/16 09:42:21;;;;;;;;;;;0.40;82.70;;;;;;4971240;28;20361;-62
2024/01/16 09:44:56;;;;;;;;;;;0.50;82.50;;;;;;5033903;28;19949;-64
2024/01/16 09:47:30;;;;;;;;;;;0.50;82.50;;;;;;4966603;28;19930;-62
2024/01/16 09:50:06;;;;;;;;;;;0.50;82.50;;;;;;4963440;28;19926;-61
2024/01/16 09:52:39;;;;;;;;;;;0.50;82.60;;;;;;5024803;28;19934;-63
2024/01/16 09:55:12;;;;;;;;;;;0.50;82.50;;;;;;4966371;28;19930;-64
2024/01/16 09:57:46;;;;;;;;;;;0.60;82.50;;;;;;4969167;28;19930;-62
2024/01/16 10:00:19;;;;;;;;;;;0.60;82.30;;;;;;4968071;28;19934;-62
2024/01/16 10:02:58;;;;;;;;;;;0.60;82.40;;;;;;4972378;28;19933;-63
2024/01/16 10:05:33;;;;;;;;;;;0.60;82.30;;;;;;4966749;28;19926;-62
2024/01/16 10:08:07;;;;;;;;;;;0.60;82.40;;;;;;4966422;28;20377;-64
2024/01/16 10:10:41;;;;;;;;;;;0.60;82.10;;;;;;4967555;28;20009;-62
2024/01/16 10:13:14;;;;;;;;;;;0.70;82.00;;;;;;4966631;28;20291;-61
2024/01/16 10:15:50;;;;;;;;;;;0.70;81.70;;;;;;4967052;28;19961;-62
2024/01/16 10:18:25;;;;;;;;;;;0.70;81.60;;;;;;4965926;28;19937;-63
2024/01/16 10:20:59;;;;;;;;;;;0.70;81.50;;;;;;4967259;28;20292;-64
2024/01/16 10:23:33;;;;;;;;;;;0.70;81.40;;;;;;4966734;28;19934;-63
2024/01/16 10:26:07;;;;;;;;;;;0.70;81.60;;;;;;4965681;28;20003;-63
2024/01/16 10:28:41;;;;;;;;;;;0.70;81.60;;;;;;4965322;28;19930;-63
2024/01/16 10:31:15;;;;;;;;;;;0.70;81.50;;;;;;4966839;28;19930;-63
2024/01/16 10:33:48;;;;;;;;;;;0.70;81.40;;;;;;4968199;28;19937;-63
2024/01/16 10:36:25;;;;;;;;;;;0.70;81.40;;;;;;4967166;28;19940;-63
2024/01/16 10:39:03;;;;;;;;;;;0.70;81.30;;;;;;4965891;28;19926;-64
2024/01/16 10:41:37;;;;;;;;;;;0.70;81.60;;;;;;4970602;28;19991;-63
2024/01/16 10:44:10;;;;;;;;;;;0.70;81.30;;;;;;4965915;28;20392;-63
2024/01/16 10:46:43;;;;;;;;;;;0.70;81.30;;;;;;4966373;28;20354;-64
2024/01/16 10:49:16;;;;;;;;;;;0.70;81.20;;;;;;4966993;28;19926;-63
2024/01/16 10:51:51;;;;;;;;;;;0.80;81.20;;;;;;4965233;28;20003;-64
2024/01/16 10:54:24;;;;;;;;;;;0.80;81.10;;;;;;4966413;28;19969;-63
2024/01/16 10:56:57;;;;;;;;;;;0.80;81.30;;;;;;4965602;28;19934;-63
2024/01/16 10:59:34;;;;;;;;;;;0.80;81.30;;;;;;4965202;28;20373;-64
2024/01/16 11:02:10;;;;;;;;;;;0.80;81.20;;;;;;4964266;28;20307;-63
2024/01/16 11:04:44;;;;;;;;;;;0.80;81.10;;;;;;4960722;28;19933;-64
2024/01/16 11:07:22;;;;;;;;;;;0.80;80.80;;;;;;4964688;28;19933;-64
2024/01/16 11:09:55;;;;;;;;;;;0.90;80.60;;;;;;4966769;28;19930;-64
2024/01/16 11:12:30;;;;;;;;;;;0.90;80.60;;;;;;4964732;28;19930;-63
2024/01/16 11:15:07;;;;;;;;;;;0.90;80.90;;;;;;4964626;28;19952;-63
2024/01/16 11:17:41;;;;;;;;;;;0.90;80.70;;;;;;4966639;28;20013;-64
2024/01/16 11:20:15;;;;;;;;;;;1.00;80.80;;;;;;4970755;28;20041;-64
2024/01/16 11:22:50;;;;;;;;;;;1.00;80.80;;;;;;4965608;28;19926;-64
2024/01/16 11:25:31;;;;;;;;;;;0.90;80.60;;;;;;4964173;28;19930;-64
2024/01/16 11:28:08;;;;;;;;;;;1.00;80.70;;;;;;4965697;28;19926;-62
2024/01/16 11:30:42;;;;;;;;;;;1.00;80.30;;;;;;4966187;28;20044;-64
2024/01/16 11:33:49;;;;;;;;;;;1.00;80.40;;;;;;4965175;28;19926;-64
2024/01/16 11:36:40;;;;;;;;;;;1.00;80.40;;;;;;4906076;28;20018;-64
2024/01/16 11:39:19;;;;;;;;;;;1.00;80.10;;;;;;4904455;29;19963;-63
2024/01/16 11:41:53;;;;;;;;;;;1.00;80.20;;;;;;4950118;28;20020;-64
2024/01/16 11:44:43;;;;;;;;;;;1.00;80.50;;;;;;4964980;28;20194;-64
2024/01/16 11:47:16;;;;;;;;;;;1.00;80.60;;;;;;4964512;28;19936;-64
2024/01/16 11:49:51;;;;;;;;;;;1.00;80.40;;;;;;4964385;28;20025;-63
2024/01/16 11:52:38;;;;;;;;;;;1.00;80.30;;;;;;4966241;28;19982;-64
2024/01/16 11:55:27;;;;;;;;;;;1.00;80.20;;;;;;4964305;28;19938;-64
2024/01/16 11:58:12;;;;;;;;;;;1.00;80.30;;;;;;4967729;28;19926;-76
2024/01/16 12:00:46;;;;;;;;;;;1.10;80.50;;;;;;4967586;28;19926;-77
2024/01/16 12:03:19;;;;;;;;;;;1.10;80.30;;;;;;4966049;28;19955;-76
2024/01/16 12:05:56;;;;;;;;;;;1.10;80.30;;;;;;4966676;28;19930;-74
2024/01/16 12:08:29;;;;;;;;;;;1.20;80.50;;;;;;4966251;28;20403;-74
2024/01/16 12:11:04;;;;;;;;;;;1.30;80.40;;;;;;4968757;28;20430;-74
2024/01/16 12:13:38;;;;;;;;;;;1.30;80.50;;;;;;4963020;28;19941;-76
2024/01/16 12:16:17;;;;;;;;;;;1.50;80.50;;;;;;4963391;28;19926;-72
2024/01/16 12:18:51;;;;;;;;;;;1.50;80.40;;;;;;4966661;28;20521;-76
2024/01/16 12:21:24;;;;;;;;;;;1.60;80.30;;;;;;4968424;28;19930;-75
2024/01/16 12:23:57;;;;;;;;;;;1.70;80.40;;;;;;4968549;28;19961;-75
2024/01/16 12:26:32;;;;;;;;;;;1.70;80.30;;;;;;4966923;28;20017;-75
2024/01/16 12:29:05;;;;;;;;;;;1.70;80.00;;;;;;4968034;28;19949;-73
2024/01/16 12:31:39;;;;;;;;;;;1.70;80.40;;;;;;5049160;28;19930;-74
2024/01/16 12:34:12;;;;;;;;;;;1.70;80.30;;;;;;4964223;28;19930;-75
2024/01/16 12:36:46;;;;;;;;;;;1.70;80.30;;;;;;4968220;28;19934;-75
2024/01/16 12:39:20;;;;;;;;;;;1.80;80.20;;;;;;4965460;28;20385;-75
2024/01/16 12:41:54;;;;;;;;;;;1.70;80.40;;;;;;4967206;28;19995;-73
2024/01/16 12:44:28;;;;;;;;;;;1.80;80.00;;;;;;4968565;28;19930;-73
2024/01/16 12:47:01;;;;;;;;;;;1.80;79.90;;;;;;4966708;28;19930;-73
2024/01/16 12:49:40;;;;;;;;;;;1.80;80.10;;;;;;4968028;28;20389;-75
2024/01/16 12:52:20;;;;;;;;;;;1.90;79.80;;;;;;4966870;28;19930;-76
2024/01/16 12:54:59;;;;;;;;;;;1.90;80.30;;;;;;4967114;28;19926;-74
2024/01/16 12:57:34;;;;;;;;;;;1.90;80.50;;;;;;4967290;28;20411;-74
2024/01/16 13:00:21;;;;;;;;;;;1.80;80.30;;;;;;4969573;28;20032;-78
2024/01/16 13:03:00;;;;;;;;;;;1.70;80.30;;;;;;4961237;28;19936;-76
2024/01/16 13:05:33;;;;;;;;;;;1.70;80.00;;;;;;4972167;28;19926;-79
2024/01/16 13:08:06;;;;;;;;;;;1.60;79.80;;;;;;4969995;28;19930;-63
2024/01/16 13:10:39;;;;;;;;;;;1.60;80.10;;;;;;4969565;28;19934;-60
2024/01/16 13:13:14;;;;;;;;;;;1.70;80.10;;;;;;4968755;28;19926;-61
2024/01/16 13:15:47;;;;;;;;;;;1.60;79.80;;;;;;4969320;28;19934;-60
2024/01/16 13:18:21;;;;;;;;;;;1.60;79.70;;;;;;4970006;28;19926;-63
2024/01/16 13:20:55;;;;;;;;;;;1.60;79.70;;;;;;4968450;28;19930;-62
2024/01/16 13:23:29;;;;;;;;;;;1.60;79.70;;;;;;4970586;28;19934;-62
2024/01/16 13:26:03;;;;;;;;;;;1.60;79.70;;;;;;4967431;28;20013;-62
2024/01/16 13:28:37;;;;;;;;;;;1.60;79.70;;;;;;4968761;28;19930;-61
2024/01/16 13:31:11;;;;;;;;;;;1.50;79.80;;;;;;4967029;28;19927;-62
2024/01/16 13:33:44;;;;;;;;;;;1.50;79.70;;;;;;4968318;28;19926;-61
2024/01/16 13:36:17;;;;;;;;;;;1.50;79.70;;;;;;5043395;28;20352;-62
2024/01/16 13:38:50;;;;;;;;;;;1.50;79.80;;;;;;4969005;28;19972;-62
2024/01/16 13:41:24;;;;;;;;;;;1.50;79.90;;;;;;4965899;28;20288;-62
2024/01/16 13:43:58;;;;;;;;;;;1.50;80.00;;;;;;5032069;28;20304;-61
2024/01/16 13:46:32;;;;;;;;;;;1.50;80.10;;;;;;5031460;28;20299;-61
2024/01/16 13:49:06;;;;;;;;;;;1.50;80.10;;;;;;4967331;28;20388;-62
2024/01/16 13:51:39;;;;;;;;;;;1.60;80.70;;;;;;4968479;28;19930;-61
2024/01/16 13:54:12;;;;;;;;;;;1.60;80.50;;;;;;4967395;28;20335;-62
2024/01/16 13:56:46;;;;;;;;;;;1.60;80.10;;;;;;4968380;28;19930;-61
2024/01/16 13:59:21;;;;;;;;;;;1.50;80.20;;;;;;4966380;28;20344;-62
2024/01/16 14:01:55;;;;;;;;;;;1.50;80.30;;;;;;4966345;28;19930;-64
2024/01/16 14:04:28;;;;;;;;;;;1.50;80.10;;;;;;4967984;28;19930;-62
2024/01/16 14:07:01;;;;;;;;;;;1.50;79.90;;;;;;4968268;28;20048;-63
2024/01/16 14:09:35;;;;;;;;;;;1.50;80.20;;;;;;4968838;28;19971;-62
2024/01/16 14:12:09;;;;;;;;;;;1.60;80.30;;;;;;4965823;28;19937;-61
2024/01/16 14:14:43;;;;;;;;;;;1.60;80.00;;;;;;4963937;28;19930;-62
2024/01/16 14:17:17;;;;;;;;;;;1.60;80.00;;;;;;4967502;28;20017;-76
2024/01/16 14:19:50;;;;;;;;;;;1.60;80.10;;;;;;4968614;28;20017;-74
2024/01/16 14:22:23;;;;;;;;;;;1.70;80.20;;;;;;4966498;28;19936;-74
2024/01/16 14:24:56;;;;;;;;;;;1.70;80.20;;;;;;4968634;28;20042;-74
2024/01/16 14:27:29;;;;;;;;;;;1.70;79.90;;;;;;5035235;28;20311;-72
2024/01/16 14:30:03;;;;;;;;;;;1.60;80.30;;;;;;5023554;28;19953;-74
2024/01/16 14:32:37;;;;;;;;;;;1.60;80.10;;;;;;4968759;28;19930;-74
2024/01/16 14:35:12;;;;;;;;;;;1.60;80.10;;;;;;4967125;28;20022;-74
2024/01/16 14:37:46;;;;;;;;;;;1.60;80.10;;;;;;4967535;28;19934;-73
2024/01/16 14:40:24;;;;;;;;;;;1.60;80.20;;;;;;4967752;28;19926;-74
2024/01/16 14:42:58;;;;;;;;;;;1.60;80.10;;;;;;5023983;28;19926;-74
2024/01/16 14:45:33;;;;;;;;;;;1.60;80.00;;;;;;4966308;28;19930;-75
2024/01/16 14:48:09;;;;;;;;;;;1.60;80.20;;;;;;4965048;28;19962;-76
2024/01/16 14:50:43;;;;;;;;;;;1.60;80.10;;;;;;4963150;28;20009;-74
2024/01/16 14:53:17;;;;;;;;;;;1.60;79.90;;;;;;4968539;28;20385;-73
2024/01/16 14:55:51;;;;;;;;;;;1.50;79.70;;;;;;4968136;28;20546;-74
2024/01/16 14:58:25;;;;;;;;;;;1.60;79.90;;;;;;4969570;28;20369;-76
2024/01/16 15:00:59;;;;;;;;;;;1.60;79.90;;;;;;5024100;28;20027;-73
2024/01/16 15:03:33;;;;;;;;;;;1.60;80.00;;;;;;4967900;28;20407;-75
2024/01/16 15:06:06;;;;;;;;;;;1.60;80.00;;;;;;5031975;28;20303;-76
2024/01/16 15:08:39;;;;;;;;;;;1.60;80.10;;;;;;4968579;28;20393;-72
2024/01/16 15:11:12;;;;;;;;;;;1.60;79.80;;;;;;4967473;28;19926;-76